createdAt,value
2022-10-25T00:01:25.561Z,63.08
2022-10-25T00:03:55.253Z,63.04
2022-10-25T00:06:24.200Z,62.89
2022-10-25T00:08:53.371Z,62.79
2022-10-25T00:11:27.352Z,62.95
2022-10-25T00:13:59.355Z,62.64
2022-10-25T00:16:31.098Z,62.71
2022-10-25T00:18:59.975Z,62.75
2022-10-25T00:21:28.807Z,62.72
2022-10-25T00:23:57.619Z,62.44
2022-10-25T00:26:26.429Z,62.04
2022-10-25T00:28:56.528Z,62.10
2022-10-25T00:31:25.640Z,61.92
2022-10-25T00:33:54.625Z,61.79
2022-10-25T00:36:26.294Z,61.76
2022-10-25T00:38:58.133Z,61.74
2022-10-25T00:41:30.576Z,61.08
2022-10-25T00:44:36.577Z,59.76
2022-10-25T00:47:07.310Z,59.34
2022-10-25T00:49:36.150Z,59.72
2022-10-25T00:52:08.584Z,59.83
2022-10-25T00:54:43.650Z,59.26
2022-10-25T00:57:38.307Z,57.42
2022-10-25T01:00:11.511Z,56.52
2022-10-25T01:02:40.788Z,55.24
2022-10-25T01:05:10.487Z,54.06
2022-10-25T01:07:39.735Z,53.03
2022-10-25T01:10:08.783Z,51.87
2022-10-25T01:12:37.607Z,50.31
2022-10-25T01:15:07.293Z,49.82
2022-10-25T01:17:44.996Z,49.39
2022-10-25T01:20:32.350Z,48.71
2022-10-25T01:23:25.422Z,47.51
2022-10-25T01:26:05.838Z,48.45
2022-10-25T01:28:56.144Z,50.01
2022-10-25T01:31:36.819Z,50.79
2022-10-25T01:34:22.877Z,51.46
2022-10-25T01:36:54.673Z,52.20
2022-10-25T01:39:32.315Z,52.76
2022-10-25T01:42:24.807Z,52.92
2022-10-25T01:45:11.936Z,52.88
2022-10-25T01:47:48.080Z,52.70
2022-10-25T01:50:30.886Z,51.87
2022-10-25T01:52:59.759Z,52.21
2022-10-25T01:55:35.722Z,52.07
2022-10-25T01:58:28.896Z,52.11
2022-10-25T02:01:27.080Z,51.80
2022-10-25T02:04:07.876Z,51.49
2022-10-25T02:07:14.989Z,51.88
2022-10-25T02:09:54.436Z,51.81
2022-10-25T02:12:34.604Z,50.93
2022-10-25T02:15:23.266Z,49.79
2022-10-25T02:18:00.217Z,48.95
2022-10-25T02:20:30.971Z,48.26
2022-10-25T02:23:03.503Z,46.95
2022-10-25T02:25:38.226Z,46.78
2022-10-25T02:28:09.741Z,45.18
2022-10-25T02:30:40.977Z,44.78
2022-10-25T02:33:09.913Z,44.72
2022-10-25T02:35:42.635Z,45.91
2022-10-25T02:38:11.693Z,46.39
2022-10-25T02:40:40.502Z,45.66
2022-10-25T02:43:09.273Z,46.36
2022-10-25T02:45:38.117Z,46.26
2022-10-25T02:48:07.196Z,46.02
2022-10-25T02:50:35.988Z,46.24
2022-10-25T02:53:04.798Z,46.91
2022-10-25T02:55:33.575Z,47.14
2022-10-25T02:58:02.416Z,47.41
2022-10-25T03:00:32.025Z,47.29
2022-10-25T03:03:00.949Z,46.98
2022-10-25T03:05:29.822Z,46.50
2022-10-25T03:07:58.548Z,46.36
2022-10-25T03:10:27.376Z,45.90
2022-10-25T03:12:56.123Z,45.45
2022-10-25T03:15:24.859Z,44.22
2022-10-25T03:17:53.617Z,43.05
2022-10-25T03:20:22.447Z,43.48
2022-10-25T03:22:51.276Z,43.04
2022-10-25T03:25:20.035Z,42.62
2022-10-25T03:27:49.801Z,43.06
2022-10-25T03:30:18.979Z,43.79
2022-10-25T03:32:47.859Z,42.99
2022-10-25T03:35:16.707Z,43.18
2022-10-25T03:37:45.812Z,42.72
2022-10-25T03:40:14.883Z,42.61
2022-10-25T03:42:44.007Z,42.49
2022-10-25T03:45:13.204Z,42.43
2022-10-25T03:47:42.036Z,41.87
2022-10-25T03:50:11.672Z,42.06
2022-10-25T03:52:41.222Z,42.34
2022-10-25T03:55:10.944Z,41.04
2022-10-25T03:57:40.171Z,41.53
2022-10-25T04:00:10.192Z,41.78
2022-10-25T04:02:42.144Z,41.76
2022-10-25T04:05:11.185Z,38.61
2022-10-25T04:07:40.012Z,37.63
2022-10-25T04:10:09.181Z,35.30
2022-10-25T04:12:38.146Z,33.07
2022-10-25T04:15:07.633Z,33.26
2022-10-25T04:17:36.406Z,31.96
2022-10-25T04:20:05.761Z,31.62
2022-10-25T04:25:04.080Z,29.78
2022-10-25T04:27:32.862Z,30.93
2022-10-25T04:30:01.786Z,31.51
2022-10-25T04:32:32.552Z,32.84
2022-10-25T04:35:01.367Z,34.40
2022-10-25T04:37:31.593Z,34.98
2022-10-25T04:40:00.402Z,34.73
2022-10-25T04:42:29.253Z,35.04
2022-10-25T04:44:58.057Z,34.94
2022-10-25T04:47:27.224Z,34.96
2022-10-25T04:49:56.035Z,35.12
2022-10-25T04:52:25.102Z,35.71
2022-10-25T04:54:53.892Z,35.47
2022-10-25T04:57:22.785Z,34.10
2022-10-25T04:59:51.701Z,33.33
2022-10-25T05:02:20.710Z,32.28
2022-10-25T05:04:49.797Z,33.33
2022-10-25T05:07:20.261Z,33.63
2022-10-25T05:09:49.550Z,32.76
2022-10-25T05:12:18.428Z,33.35
2022-10-25T05:14:47.202Z,34.33
2022-10-25T05:17:15.947Z,34.98
2022-10-25T05:19:44.707Z,35.80
2022-10-25T05:22:13.532Z,36.02
2022-10-25T05:24:42.347Z,35.78
2022-10-25T05:27:11.202Z,35.69
2022-10-25T05:29:40.139Z,36.12
2022-10-25T05:32:09.079Z,35.29
2022-10-25T05:34:37.910Z,35.93
2022-10-25T05:37:06.693Z,35.78
2022-10-25T05:39:35.504Z,35.79
2022-10-25T05:42:06.903Z,35.82
2022-10-25T05:44:35.792Z,35.77
2022-10-25T05:47:04.744Z,35.47
2022-10-25T05:49:40.071Z,35.91
2022-10-25T05:52:08.950Z,36.21
2022-10-25T05:54:37.871Z,36.29
2022-10-25T05:57:06.659Z,36.58
2022-10-25T05:59:35.522Z,36.84
2022-10-25T06:02:05.270Z,36.66
2022-10-25T06:04:34.429Z,36.94
2022-10-25T06:07:03.231Z,36.18
2022-10-25T06:09:32.017Z,35.07
2022-10-25T06:12:01.159Z,35.27
2022-10-25T06:14:31.103Z,35.55
2022-10-25T06:16:59.910Z,35.97
2022-10-25T06:19:28.871Z,33.97
2022-10-25T06:21:57.627Z,33.90
2022-10-25T06:24:26.414Z,34.47
2022-10-25T06:26:55.408Z,34.36
2022-10-25T06:29:24.327Z,32.79
2022-10-25T06:31:53.420Z,32.07
2022-10-25T06:34:22.320Z,31.61
2022-10-25T06:36:51.144Z,32.62
2022-10-25T06:39:19.986Z,33.66
2022-10-25T06:41:48.805Z,33.55
2022-10-25T06:44:17.769Z,32.62
2022-10-25T06:47:15.819Z,32.04
2022-10-25T06:49:35.307Z,31.79
2022-10-25T06:52:04.186Z,31.35
2022-10-25T06:54:33.127Z,29.80
2022-10-25T06:57:02.021Z,30.37
2022-10-25T06:59:30.796Z,31.18
2022-10-25T07:02:00.378Z,31.64
2022-10-25T07:04:33.020Z,32.44
2022-10-25T07:07:02.523Z,33.55
2022-10-25T07:09:31.415Z,33.82
2022-10-25T07:12:00.337Z,34.24
2022-10-25T07:14:29.100Z,34.31
2022-10-25T07:16:58.267Z,34.53
2022-10-25T07:19:27.244Z,34.98
2022-10-25T07:21:56.115Z,34.62
2022-10-25T07:24:24.942Z,35.18
2022-10-25T07:26:53.801Z,35.14
2022-10-25T07:29:22.700Z,35.07
2022-10-25T07:31:51.509Z,34.93
2022-10-25T07:34:21.662Z,35.53
2022-10-25T07:36:50.421Z,35.55
2022-10-25T07:39:19.229Z,36.12
2022-10-25T07:41:48.287Z,36.16
2022-10-25T07:44:20.230Z,36.36
2022-10-25T07:46:52.796Z,36.69
2022-10-25T07:49:21.547Z,36.98
2022-10-25T07:51:50.845Z,36.89
2022-10-25T07:54:19.726Z,37.11
2022-10-25T07:56:48.499Z,37.02
2022-10-25T07:59:17.343Z,37.47
2022-10-25T08:01:46.935Z,37.60
2022-10-25T08:04:15.907Z,37.83
2022-10-25T08:06:44.683Z,38.07
2022-10-25T08:09:14.756Z,38.08
2022-10-25T08:11:55.417Z,38.11
2022-10-25T08:14:24.255Z,38.28
2022-10-25T08:16:53.019Z,38.52
2022-10-25T08:19:22.029Z,38.55
2022-10-25T08:21:50.802Z,38.46
2022-10-25T08:26:53.297Z,38.70
2022-10-25T08:29:22.135Z,38.90
2022-10-25T08:31:50.914Z,38.72
2022-10-25T08:34:19.640Z,39.04
2022-10-25T08:36:50.581Z,39.42
2022-10-25T08:39:19.350Z,39.17
2022-10-25T08:42:00.209Z,39.19
2022-10-25T08:44:52.555Z,39.57
2022-10-25T08:47:27.738Z,39.81
2022-10-25T08:49:58.943Z,39.46
2022-10-25T08:52:35.232Z,39.71
2022-10-25T08:55:06.165Z,39.65
2022-10-25T08:57:40.383Z,39.67
2022-10-25T09:00:20.187Z,40.08
2022-10-25T09:02:54.955Z,40.10
2022-10-25T09:06:08.296Z,40.54
2022-10-25T09:08:58.995Z,40.07
2022-10-25T09:12:03.298Z,40.75
2022-10-25T09:14:53.751Z,40.33
2022-10-25T09:17:45.523Z,40.84
2022-10-25T09:20:31.455Z,40.63
2022-10-25T09:23:12.245Z,40.68
2022-10-25T09:26:19.988Z,41.01
2022-10-25T09:28:54.154Z,40.61
2022-10-25T09:31:26.665Z,41.20
2022-10-25T09:34:04.486Z,41.09
2022-10-25T09:36:45.985Z,40.94
2022-10-25T09:39:23.771Z,41.37
2022-10-25T09:41:56.881Z,41.38
2022-10-25T09:44:37.862Z,41.23
2022-10-25T09:47:21.046Z,41.60
2022-10-25T09:50:07.851Z,41.38
2022-10-25T09:52:39.476Z,41.45
2022-10-25T09:55:30.448Z,41.58
2022-10-25T09:57:59.510Z,41.83
2022-10-25T10:00:29.982Z,41.63
2022-10-25T10:02:59.153Z,42.23
2022-10-25T10:05:28.481Z,42.43
2022-10-25T10:07:57.278Z,42.08
2022-10-25T10:10:35.464Z,42.27
2022-10-25T10:13:32.013Z,42.30
2022-10-25T10:16:06.046Z,42.73
2022-10-25T10:18:35.920Z,42.76
2022-10-25T10:21:23.052Z,42.68
2022-10-25T10:24:01.045Z,42.33
2022-10-25T10:26:46.263Z,42.98
2022-10-25T10:29:21.004Z,42.95
2022-10-25T10:32:00.054Z,42.93
2022-10-25T10:34:44.401Z,42.81
2022-10-25T10:37:19.230Z,43.35
2022-10-25T10:39:58.395Z,43.53
2022-10-25T10:42:37.410Z,43.81
2022-10-25T10:45:09.144Z,43.29
2022-10-25T10:47:40.669Z,43.54
2022-10-25T10:50:21.749Z,43.59
2022-10-25T10:53:04.411Z,43.66
2022-10-25T10:55:51.160Z,43.83
2022-10-25T10:58:34.766Z,44.08
2022-10-25T11:01:11.267Z,44.18
2022-10-25T11:03:59.242Z,44.23
2022-10-25T11:06:35.395Z,44.31
2022-10-25T11:09:23.733Z,43.96
2022-10-25T11:12:15.414Z,44.21
2022-10-25T11:14:44.239Z,44.22
2022-10-25T11:17:37.619Z,44.25
2022-10-25T11:20:22.976Z,44.22
2022-10-25T11:23:04.409Z,44.45
2022-10-25T11:25:49.290Z,44.65
2022-10-25T11:29:00.129Z,44.96
2022-10-25T11:31:41.850Z,44.16
2022-10-25T11:34:36.963Z,44.19
2022-10-25T11:37:12.956Z,44.73
2022-10-25T11:40:05.182Z,44.69
2022-10-25T11:42:37.113Z,44.79
2022-10-25T11:45:27.468Z,44.71
2022-10-25T11:48:28.381Z,45.05
2022-10-25T11:51:03.173Z,45.21
2022-10-25T11:53:53.025Z,44.81
2022-10-25T11:56:27.745Z,45.22
2022-10-25T11:59:23.353Z,44.86
2022-10-25T12:02:21.534Z,44.73
2022-10-25T12:05:35.081Z,45.11
2022-10-25T12:08:26.050Z,45.49
2022-10-25T12:11:03.506Z,45.48
2022-10-25T12:13:37.059Z,45.07
2022-10-25T12:16:12.514Z,45.14
2022-10-25T12:18:42.781Z,45.12
2022-10-25T12:21:28.859Z,45.37
2022-10-25T12:23:59.261Z,45.16
2022-10-25T12:26:34.038Z,45.00
2022-10-25T12:29:06.260Z,45.36
2022-10-25T12:31:47.213Z,45.36
2022-10-25T12:34:38.915Z,45.05
2022-10-25T12:37:33.013Z,45.85
2022-10-25T12:40:01.966Z,45.46
2022-10-25T12:42:36.304Z,45.44
2022-10-25T12:45:08.180Z,45.90
2022-10-25T12:47:42.943Z,45.09
2022-10-25T12:50:29.499Z,45.55
2022-10-25T12:53:29.017Z,45.28
2022-10-25T12:56:28.562Z,45.80
2022-10-25T12:59:03.683Z,45.79
2022-10-25T13:01:46.167Z,45.65
2022-10-25T13:04:33.721Z,45.84
2022-10-25T13:07:05.574Z,45.38
2022-10-25T13:09:36.828Z,45.37
2022-10-25T13:12:16.602Z,45.46
2022-10-25T13:14:56.818Z,45.46
2022-10-25T13:17:25.607Z,45.83
2022-10-25T13:20:15.867Z,45.59
2022-10-25T13:22:46.020Z,45.88
2022-10-25T13:25:50.641Z,45.67
2022-10-25T13:28:36.022Z,45.32
2022-10-25T13:31:35.785Z,45.33
2022-10-25T13:34:13.470Z,46.02
2022-10-25T13:36:56.394Z,46.06
2022-10-25T13:39:28.429Z,46.00
2022-10-25T13:42:11.791Z,45.57
2022-10-25T13:44:57.874Z,45.54
2022-10-25T13:47:43.636Z,45.42
2022-10-25T13:50:27.695Z,45.97
2022-10-25T13:53:03.150Z,45.46
2022-10-25T13:56:05.799Z,45.54
2022-10-25T13:58:40.647Z,45.74
2022-10-25T14:01:19.440Z,45.57
2022-10-25T14:03:52.031Z,45.75
2022-10-25T14:06:35.763Z,45.78
2022-10-25T14:09:16.469Z,46.39
2022-10-25T14:11:52.751Z,45.84
2022-10-25T14:14:53.914Z,46.43
2022-10-25T14:17:40.016Z,45.94
2022-10-25T14:20:10.388Z,46.19
2022-10-25T14:22:44.454Z,45.85
2022-10-25T14:25:21.298Z,45.86
2022-10-25T14:27:50.434Z,46.26
2022-10-25T14:30:24.157Z,45.81
2022-10-25T14:33:07.353Z,45.98
2022-10-25T14:36:11.509Z,46.00
2022-10-25T14:38:54.209Z,45.75
2022-10-25T14:41:29.056Z,45.91
2022-10-25T14:43:58.558Z,45.93
2022-10-25T14:46:30.632Z,46.10
2022-10-25T14:49:01.393Z,45.79
2022-10-25T14:51:41.832Z,45.98
2022-10-25T14:54:13.655Z,46.65
2022-10-25T14:56:50.514Z,46.04
2022-10-25T14:59:19.104Z,46.18
2022-10-25T15:02:03.457Z,46.01
2022-10-25T15:04:41.538Z,46.39
2022-10-25T15:07:34.028Z,46.53
2022-10-25T15:12:35.714Z,46.69
2022-10-25T15:15:44.646Z,46.79
2022-10-25T15:18:22.721Z,46.54
2022-10-25T15:21:03.218Z,46.86
2022-10-25T15:23:32.232Z,46.57
2022-10-25T15:26:24.334Z,46.00
2022-10-25T15:29:02.046Z,46.32
2022-10-25T15:31:33.252Z,46.33
2022-10-25T15:34:06.704Z,47.13
2022-10-25T15:36:35.550Z,46.50
2022-10-25T15:39:21.689Z,47.13
2022-10-25T15:41:50.623Z,46.74
2022-10-25T15:44:19.422Z,46.80
2022-10-25T15:46:49.596Z,46.93
2022-10-25T15:49:20.109Z,47.05
2022-10-25T15:51:49.163Z,46.88
2022-10-25T15:54:23.298Z,46.73
2022-10-25T15:56:52.586Z,46.19
2022-10-25T15:59:24.802Z,46.85
2022-10-25T16:01:56.392Z,46.74
2022-10-25T16:04:25.520Z,46.80
2022-10-25T16:06:54.289Z,46.36
2022-10-25T16:09:23.134Z,46.45
2022-10-25T16:11:57.287Z,46.40
2022-10-25T16:14:27.834Z,47.21
2022-10-25T16:16:59.813Z,46.49
2022-10-25T16:19:31.963Z,47.03
2022-10-25T16:22:00.866Z,46.87
2022-10-25T16:24:30.670Z,46.60
2022-10-25T16:27:01.399Z,46.50
2022-10-25T16:29:30.480Z,47.09
2022-10-25T16:31:59.337Z,46.64
2022-10-25T16:34:30.418Z,46.73
2022-10-25T16:36:59.381Z,46.71
2022-10-25T16:39:28.216Z,46.91
2022-10-25T16:41:58.884Z,47.05
2022-10-25T16:44:27.748Z,46.90
2022-10-25T16:46:56.531Z,46.49
2022-10-25T16:49:25.349Z,46.93
2022-10-25T16:51:54.232Z,47.07
2022-10-25T16:54:24.255Z,46.90
2022-10-25T16:56:53.210Z,46.87
2022-10-25T16:59:22.222Z,46.61
2022-10-25T17:01:57.519Z,46.96
2022-10-25T17:04:27.385Z,46.53
2022-10-25T17:06:56.336Z,46.47
2022-10-25T17:09:25.108Z,46.50
2022-10-25T17:11:53.888Z,46.88
2022-10-25T17:14:22.653Z,46.77
2022-10-25T17:16:51.435Z,46.83
2022-10-25T17:19:20.223Z,46.45
2022-10-25T17:21:49.065Z,46.41
2022-10-25T17:24:18.070Z,46.88
2022-10-25T17:26:47.089Z,46.67
2022-10-25T17:29:16.496Z,46.72
2022-10-25T17:31:46.261Z,46.82
2022-10-25T17:34:15.166Z,46.50
2022-10-25T17:36:44.072Z,46.69
2022-10-25T17:39:13.820Z,46.37
2022-10-25T17:41:42.579Z,46.54
2022-10-25T17:44:11.994Z,46.50
2022-10-25T17:46:40.868Z,46.61
2022-10-25T17:49:10.578Z,46.03
2022-10-25T17:51:39.421Z,46.56
2022-10-25T17:54:10.100Z,46.26
2022-10-25T17:56:38.986Z,46.67
2022-10-25T17:59:08.357Z,46.29
2022-10-25T18:01:38.267Z,46.17
2022-10-25T18:04:07.621Z,46.44
2022-10-25T18:06:36.531Z,46.33
2022-10-25T18:09:05.563Z,46.03
2022-10-25T18:11:34.445Z,46.55
2022-10-25T18:14:03.255Z,46.28
2022-10-25T18:16:33.082Z,46.18
2022-10-25T18:19:03.738Z,46.65
2022-10-25T18:21:33.706Z,46.68
2022-10-25T18:24:05.610Z,46.46
2022-10-25T18:26:36.126Z,46.27
2022-10-25T18:29:04.944Z,46.44
2022-10-25T18:31:33.780Z,47.09
2022-10-25T18:34:05.230Z,46.85
2022-10-25T18:36:34.121Z,46.49
2022-10-25T18:39:03.197Z,46.50
2022-10-25T18:41:34.117Z,46.77
2022-10-25T18:44:05.757Z,46.97
2022-10-25T18:46:34.583Z,47.01
2022-10-25T18:49:03.749Z,46.54
2022-10-25T18:51:33.456Z,46.96
2022-10-25T18:54:03.264Z,46.99
2022-10-25T18:56:32.585Z,47.04
2022-10-25T18:59:01.403Z,47.30
2022-10-25T19:01:33.202Z,46.94
2022-10-25T19:04:04.264Z,46.94
2022-10-25T19:06:33.780Z,47.31
2022-10-25T19:09:05.837Z,47.06
2022-10-25T19:11:35.878Z,47.16
2022-10-25T19:14:05.737Z,46.74
2022-10-25T19:16:36.469Z,46.85
2022-10-25T19:19:07.687Z,46.96
2022-10-25T19:21:36.576Z,46.79
2022-10-25T19:24:06.004Z,46.85
2022-10-25T19:26:34.861Z,47.18
2022-10-25T19:29:03.627Z,47.36
2022-10-25T19:31:32.602Z,47.01
2022-10-25T19:34:03.595Z,47.59
2022-10-25T19:36:32.880Z,47.19
2022-10-25T19:39:02.101Z,47.00
2022-10-25T19:41:31.073Z,47.05
2022-10-25T19:43:59.969Z,47.46
2022-10-25T19:46:28.953Z,47.61
2022-10-25T19:49:00.811Z,47.36
2022-10-25T19:51:29.619Z,47.50
2022-10-25T19:53:58.480Z,47.73
2022-10-25T19:56:27.283Z,47.84
2022-10-25T19:58:56.077Z,47.55
2022-10-25T20:01:30.107Z,47.69
2022-10-25T20:04:01.181Z,47.61
2022-10-25T20:06:32.797Z,47.29
2022-10-25T20:09:02.514Z,47.98
2022-10-25T20:11:32.095Z,47.33
2022-10-25T20:14:02.604Z,47.14
2022-10-25T20:16:32.870Z,47.18
2022-10-25T20:19:02.784Z,47.31
2022-10-25T20:21:37.054Z,47.50
2022-10-25T20:24:09.868Z,47.10
2022-10-25T20:26:41.560Z,47.42
2022-10-25T20:29:21.284Z,47.46
2022-10-25T20:31:52.047Z,47.69
2022-10-25T20:34:21.289Z,47.88
2022-10-25T20:36:50.216Z,48.08
2022-10-25T20:39:19.221Z,47.91
2022-10-25T20:41:48.108Z,47.75
2022-10-25T20:44:17.233Z,47.93
2022-10-25T20:46:46.081Z,48.02
2022-10-25T20:49:14.902Z,47.83
2022-10-25T20:51:43.698Z,47.65
2022-10-25T20:54:12.484Z,47.81
2022-10-25T20:56:41.271Z,48.02
2022-10-25T20:59:10.153Z,47.81
2022-10-25T21:01:40.069Z,48.27
2022-10-25T21:04:09.954Z,48.11
2022-10-25T21:06:38.779Z,47.80
2022-10-25T21:09:07.584Z,47.50
2022-10-25T21:11:36.508Z,47.51
2022-10-25T21:14:05.406Z,47.56
2022-10-25T21:16:34.211Z,47.16
2022-10-25T21:19:04.379Z,47.05
2022-10-25T21:21:33.248Z,46.82
2022-10-25T21:24:03.424Z,47.35
2022-10-25T21:26:32.257Z,46.99
2022-10-25T21:29:01.074Z,47.39
2022-10-25T21:31:29.850Z,47.40
2022-10-25T21:34:01.502Z,47.96
2022-10-25T21:36:30.368Z,47.17
2022-10-25T21:38:59.162Z,47.79
2022-10-25T21:41:28.058Z,48.09
2022-10-25T21:43:58.168Z,47.49
2022-10-25T21:46:28.500Z,47.32
2022-10-25T21:48:57.395Z,47.41
2022-10-25T21:51:26.291Z,47.68
2022-10-25T21:53:55.745Z,48.06
2022-10-25T21:56:31.360Z,48.19
2022-10-25T21:59:01.640Z,48.71
2022-10-25T22:01:32.141Z,48.09
2022-10-25T22:04:01.385Z,48.80
2022-10-25T22:06:30.997Z,49.22
2022-10-25T22:08:59.818Z,49.55
2022-10-25T22:11:31.595Z,49.74
2022-10-25T22:14:02.818Z,49.15
2022-10-25T22:16:33.164Z,48.88
2022-10-25T22:19:05.325Z,49.36
2022-10-25T22:21:37.013Z,49.98
2022-10-25T22:24:08.980Z,49.16
2022-10-25T22:26:40.515Z,49.68
2022-10-25T22:29:14.995Z,50.25
2022-10-25T22:31:43.919Z,49.99
2022-10-25T22:34:12.748Z,50.78
2022-10-25T22:36:42.955Z,50.24
2022-10-25T22:39:11.803Z,50.37
2022-10-25T22:41:40.536Z,50.63
2022-10-25T22:44:09.378Z,51.21
2022-10-25T22:46:38.223Z,50.49
2022-10-25T22:49:09.661Z,50.97
2022-10-25T22:51:39.141Z,51.04
2022-10-25T22:54:08.120Z,51.11
2022-10-25T22:56:37.158Z,51.77
2022-10-25T22:59:07.597Z,51.00
2022-10-25T23:01:39.018Z,50.90
2022-10-25T23:04:10.288Z,51.29
2022-10-25T23:06:40.905Z,52.13
2022-10-25T23:09:11.272Z,51.18
2022-10-25T23:11:41.463Z,51.17
2022-10-25T23:14:14.850Z,51.68
2022-10-25T23:16:47.329Z,51.37
2022-10-25T23:19:16.406Z,51.90
2022-10-25T23:21:45.186Z,51.28
2022-10-25T23:24:14.212Z,51.86
2022-10-25T23:26:43.496Z,51.30
2022-10-25T23:29:13.773Z,51.59
2022-10-25T23:31:42.565Z,52.20
2022-10-25T23:34:12.034Z,52.23
2022-10-25T23:36:41.071Z,51.84
2022-10-25T23:39:09.854Z,52.26
2022-10-25T23:41:38.966Z,52.29
2022-10-25T23:44:07.722Z,52.30
2022-10-25T23:46:36.514Z,51.90
2022-10-25T23:49:07.318Z,51.84
2022-10-25T23:51:36.138Z,51.97
2022-10-25T23:54:06.277Z,51.74
2022-10-25T23:56:35.103Z,51.99
2022-10-25T23:59:03.918Z,51.83
